Active alerts


No alerts


weather webcam more information weather webcam


Thunder radar more information blitzortung!


Rain radar more information rain snow radar


Visit our other weather sites:

Template documentation
and downloads

And another site


Weather Underground History page Text

Daily Summary for January 16, 2018 Units:  English    Metric   Both
« Previous Day
Next Day »
Daily Weekly Monthly Yearly Custom
  Current: High: Low: Average:
Temperature: 4.4 °F 9.3 °F -0.1 °F 3.1 °F
Dew Point: -2.1 °F 1.2 °F -4.8 °F -2.5 °F
Humidity: 74 % 84 % 68 % 77 %
Wind Speed: 2.0 mph 13.0 mph 0.0 mph 4.1 mph
Wind Gust: 5.0 mph 13.0 mph - -
Wind:WSW - - WNW
Pressure: 30.74 in 30.83 in 30.71 in -
Precipitation: 0.00 in      
Historical Graphs
 
 
Tabular Data for January 16, 2018
Time Temperature Dew Point Pressure Wind Wind Speed Wind Gust Humidity Rainfall Rate (Hourly)
00:00 1.6 °F -3.7 °F 30.71 in WNW 5.0 mph 8.0 mph 78 % 0.00 in
00:18 1.4 °F -3.9 °F 30.71 in NNW 3.0 mph 11.0 mph 78 % 0.00 in
00:29 1.2 °F -4.1 °F 30.71 in NW 2.0 mph 8.0 mph 78 % 0.00 in
00:35 1.0 °F -4.3 °F 30.71 in NW 4.0 mph 9.0 mph 78 % 0.00 in
00:46 0.8 °F -4.2 °F 30.72 in NNW 3.0 mph 11.0 mph 79 % 0.00 in
00:51 0.6 °F -4.6 °F 30.72 in WNW 2.0 mph 11.0 mph 78 % 0.00 in
00:56 0.5 °F -4.5 °F 30.72 in NNW 3.0 mph 9.0 mph 79 % 0.00 in
01:03 0.4 °F -4.6 °F 30.72 in WNW 3.0 mph 8.0 mph 79 % 0.00 in
01:14 0.5 °F -4.2 °F 30.72 in NW 4.0 mph 9.0 mph 80 % 0.00 in
01:21 0.4 °F -4.6 °F 30.72 in NW 4.0 mph 7.0 mph 79 % 0.00 in
01:26 0.2 °F -4.8 °F 30.72 in NW 1.0 mph 9.0 mph 79 % 0.00 in
01:37 0.1 °F -4.6 °F 30.72 in NW 4.0 mph 8.0 mph 80 % 0.00 in
01:48 0.1 °F -4.6 °F 30.73 in WNW 4.0 mph 8.0 mph 80 % 0.00 in
01:59 0.1 °F -4.6 °F 30.73 in WNW 3.0 mph 7.0 mph 80 % 0.00 in
02:10 -0.1 °F -4.8 °F 30.73 in NW 1.0 mph 6.0 mph 80 % 0.00 in
02:29 -0.1 °F -4.5 °F 30.74 in NW 2.0 mph 5.0 mph 81 % 0.00 in
02:41 0.1 °F -4.3 °F 30.75 in NW 5.0 mph 8.0 mph 81 % 0.00 in
02:47 0.1 °F -4.3 °F 30.74 in NW 5.0 mph 8.0 mph 81 % 0.00 in
03:00 0.1 °F -4.1 °F 30.75 in NW 1.0 mph 9.0 mph 82 % 0.00 in
03:24 0.4 °F -3.8 °F 30.75 in NW 2.0 mph 6.0 mph 82 % 0.00 in
03:31 0.3 °F -3.9 °F 30.76 in NW 1.0 mph 7.0 mph 82 % 0.00 in
03:38 0.3 °F -3.9 °F 30.76 in WNW 2.0 mph 6.0 mph 82 % 0.00 in
03:51 0.1 °F -3.8 °F 30.76 in WNW 2.0 mph 5.0 mph 83 % 0.00 in
04:04 0.2 °F -3.7 °F 30.76 in NW 4.0 mph 8.0 mph 83 % 0.00 in
04:17 0.7 °F -3.0 °F 30.77 in NW 2.0 mph 8.0 mph 84 % 0.00 in
04:23 0.8 °F -3.2 °F 30.77 in NW 3.0 mph 8.0 mph 83 % 0.00 in
04:53 1.3 °F -2.7 °F 30.77 in NW 2.0 mph 7.0 mph 83 % 0.00 in
04:58 1.3 °F -2.7 °F 30.77 in NW 4.0 mph 8.0 mph 83 % 0.00 in
05:21 1.4 °F -2.6 °F 30.78 in NW 3.0 mph 9.0 mph 83 % 0.00 in
05:29 1.4 °F -2.6 °F 30.78 in WNW 6.0 mph 9.0 mph 83 % 0.00 in
05:36 1.4 °F -2.6 °F 30.78 in NNW 2.0 mph 9.0 mph 83 % 0.00 in
06:01 1.5 °F -2.5 °F 30.79 in WNW 7.0 mph 8.0 mph 83 % 0.00 in
06:10 1.6 °F -2.4 °F 30.79 in NW 8.0 mph 8.0 mph 83 % 0.00 in
06:15 1.6 °F -2.4 °F 30.80 in NW 5.0 mph 8.0 mph 83 % 0.00 in
06:20 1.6 °F -2.4 °F 30.80 in NW 6.0 mph 6.0 mph 83 % 0.00 in
06:25 1.7 °F -2.3 °F 30.80 in NW 11.0 mph 11.0 mph 83 % 0.00 in
06:30 1.7 °F -2.3 °F 30.80 in NW 8.0 mph 11.0 mph 83 % 0.00 in
06:35 1.6 °F -2.6 °F 30.80 in WNW 8.0 mph 8.0 mph 82 % 0.00 in
06:40 1.6 °F -2.4 °F 30.80 in WNW 13.0 mph 13.0 mph 83 % 0.00 in
06:55 1.5 °F -2.5 °F 30.80 in NW 10.0 mph 10.0 mph 83 % 0.00 in
07:05 1.5 °F -2.5 °F 30.80 in WNW 9.0 mph 9.0 mph 83 % 0.00 in
07:10 1.4 °F -2.8 °F 30.80 in NW 8.0 mph 9.0 mph 82 % 0.00 in
07:23 1.4 °F -2.8 °F 30.80 in NW 5.0 mph 8.0 mph 82 % 0.00 in
07:34 1.1 °F -3.1 °F 30.81 in North 5.0 mph 9.0 mph 82 % 0.00 in
08:13 0.7 °F -3.5 °F 30.81 in NW 3.0 mph 8.0 mph 82 % 0.00 in
08:19 0.6 °F -3.6 °F 30.81 in NW 5.0 mph 12.0 mph 82 % 0.00 in
08:26 0.5 °F -3.7 °F 30.81 in NW 3.0 mph 12.0 mph 82 % 0.00 in
08:42 0.6 °F -3.6 °F 30.81 in NW 3.0 mph 6.0 mph 82 % 0.00 in
08:50 0.5 °F -4.0 °F 30.81 in NW 2.0 mph 8.0 mph 81 % 0.00 in
09:10 1.0 °F -3.5 °F 30.82 in NW 5.0 mph 11.0 mph 81 % 0.00 in
09:15 0.9 °F -3.8 °F 30.82 in NW 8.0 mph 12.0 mph 80 % 0.00 in
09:29 1.3 °F -3.7 °F 30.83 in NW 8.0 mph 11.0 mph 79 % 0.00 in
09:35 1.3 °F -3.7 °F 30.83 in NW 5.0 mph 11.0 mph 79 % 0.00 in
09:51 1.7 °F -3.6 °F 30.83 in West 3.0 mph 8.0 mph 78 % 0.00 in
09:59 1.7 °F -3.8 °F 30.83 in NW 1.0 mph 8.0 mph 77 % 0.00 in
10:07 1.7 °F -3.8 °F 30.82 in NW 3.0 mph 9.0 mph 77 % 0.00 in
10:31 3.0 °F -2.9 °F 30.83 in NNW 4.0 mph 9.0 mph 76 % 0.00 in
10:38 3.1 °F -3.0 °F 30.83 in NW 4.0 mph 9.0 mph 75 % 0.00 in
10:46 3.2 °F -2.9 °F 30.82 in West 6.0 mph 9.0 mph 75 % 0.00 in
10:54 3.3 °F -2.8 °F 30.82 in NW 2.0 mph 9.0 mph 75 % 0.00 in
11:00 3.5 °F -2.7 °F 30.81 in SW 3.0 mph 7.0 mph 75 % 0.00 in
11:06 3.9 °F -2.3 °F 30.81 in WNW 5.0 mph 7.0 mph 75 % 0.00 in
11:13 4.0 °F -2.4 °F 30.81 in Calm   7.0 mph 74 % 0.00 in
11:39 5.3 °F -1.5 °F 30.80 in SSW 3.0 mph 7.0 mph 73 % 0.00 in
11:47 5.6 °F -1.5 °F 30.80 in WSW 4.0 mph 6.0 mph 72 % 0.00 in
12:03 6.0 °F -1.1 °F 30.80 in West 2.0 mph 8.0 mph 72 % 0.00 in
12:15 6.4 °F -0.7 °F 30.79 in WSW 4.0 mph 7.0 mph 72 % 0.00 in
12:28 6.6 °F -0.5 °F 30.78 in West 4.0 mph 9.0 mph 72 % 0.00 in
12:38 6.4 °F -0.7 °F 30.78 in WSW 5.0 mph 8.0 mph 72 % 0.00 in
12:50 7.0 °F -0.1 °F 30.78 in WSW 4.0 mph 10.0 mph 72 % 0.00 in
12:56 7.3 °F -0.1 °F 30.78 in West 3.0 mph 9.0 mph 71 % 0.00 in
13:04 7.5 °F 0.1 °F 30.77 in SSW 3.0 mph 8.0 mph 71 % 0.00 in
13:09 7.8 °F 0.3 °F 30.77 in SSW 2.0 mph 9.0 mph 71 % 0.00 in
13:30 8.4 °F 0.3 °F 30.77 in West 6.0 mph 10.0 mph 69 % 0.00 in
13:35 8.4 °F 0.6 °F 30.77 in West 7.0 mph 10.0 mph 70 % 0.00 in
13:46 8.4 °F 0.6 °F 30.76 in West 4.0 mph 8.0 mph 70 % 0.00 in
13:51 8.4 °F 0.6 °F 30.76 in West 1.0 mph 8.0 mph 70 % 0.00 in
13:57 8.5 °F 0.7 °F 30.77 in WSW 4.0 mph 9.0 mph 70 % 0.00 in
14:05 9.0 °F 1.2 °F 30.76 in WNW 3.0 mph 9.0 mph 70 % 0.00 in
14:15 9.1 °F 1.0 °F 30.76 in WSW 5.0 mph 10.0 mph 69 % 0.00 in
14:21 9.3 °F 0.9 °F 30.76 in WSW 10.0 mph 10.0 mph 68 % 0.00 in
14:29 8.8 °F 0.7 °F 30.76 in SW 3.0 mph 10.0 mph 69 % 0.00 in
14:41 8.2 °F 0.1 °F 30.76 in South 5.0 mph 10.0 mph 69 % 0.00 in
14:50 7.7 °F -0.1 °F 30.76 in WSW 7.0 mph 10.0 mph 70 % 0.00 in
15:05 7.4 °F -0.3 °F 30.75 in WSW 3.0 mph 9.0 mph 70 % 0.00 in
15:20 6.9 °F -0.5 °F 30.76 in WSW 3.0 mph 10.0 mph 71 % 0.00 in
15:43 5.9 °F -1.5 °F 30.75 in West 1.0 mph 9.0 mph 71 % 0.00 in
15:50 5.8 °F -1.6 °F 30.75 in West 4.0 mph 9.0 mph 71 % 0.00 in
15:57 5.5 °F -1.6 °F 30.75 in WSW 3.0 mph 10.0 mph 72 % 0.00 in
16:03 5.5 °F -1.6 °F 30.75 in WSW 2.0 mph 10.0 mph 72 % 0.00 in
16:09 5.4 °F -1.7 °F 30.75 in WSW 3.0 mph 6.0 mph 72 % 0.00 in
16:39 5.0 °F -1.8 °F 30.75 in SW 4.0 mph 8.0 mph 73 % 0.00 in
16:47 4.9 °F -1.9 °F 30.74 in WSW 3.0 mph 8.0 mph 73 % 0.00 in
16:53 4.8 °F -1.7 °F 30.75 in WSW 2.0 mph 7.0 mph 74 % 0.00 in
17:23 4.4 °F -2.1 °F 30.74 in WSW 2.0 mph 5.0 mph 74 % 0.00 in
Edina, Minnesota
Compliments of Weather Underground - 4 mb

Script developed by  Jim McMurry - jmcmurry@mwt.net Adapted for the template by  Wim van der Kuil - Leuven-Template.eu

You find our weather info also at:

Weather Underground

Midwestern Weather Network

Citizen Weather Observer Program (CWOP)

HAMweather, WeatherForYou, PWS Weather

Equipment we use:

Weather-station
Davis VP2

Weather-program
Cumulus

Davis VP2

Cumulus